Atlantis — PCDT — position and weather

sailwx.info

Track history (hours):
 
Tides and Currents Weather Stations Pressure Air Temp Water Temp Dewpoint Dewpoint Depression Visibility Wind Speed Wind Dir Waves Ship Positions

Atlantis (Netherlands)

Ship's website: http://www.tallship-company.com/artemis/gb_atlantis.htm

Last reported at 2015-Aug-04 12:17 UTC. Time now 2015-Aug-04 22:00 UTC.
Position N 54°13' E 011°10'.

Length 40 m; draft 4.4 m.

Type: Sailing vessel. MMSI: 246253000.

Date/timePositionNaut miles runAvg speedWind from/ knotsBaromVisibWave heightAir tempDewpointWater temp
2015-Aug-04 12:17N 54°13' E 011°10'5 4.3
2015-Aug-04 11:04N 54°17' E 011°15'2 3.9
2015-Aug-04 10:33N 54°19' E 011°16'4 3.8
2015-Aug-04 09:33N 54°22' E 011°19'5 5.5
2015-Aug-04 08:33N 54°28' E 011°19'5 5.4
2015-Aug-04 07:33N 54°32' E 011°13'7 6.8
2015-Aug-04 06:33N 54°35' E 011°02'6 5.7
2015-Aug-04 05:33N 54°38' E 010°54'6 5.7
2015-Aug-04 04:33N 54°41' E 010°46'6 5.7
2015-Aug-04 03:33N 54°45' E 010°39'1 0.7
2015-Aug-04 02:30N 54°45' E 010°40'0 0.0
2015-Aug-03 23:18N 54°45' E 010°40'0 0.0
2015-Aug-03 22:30N 54°45' E 010°40'0 0.0
2015-Aug-03 21:33N 54°45' E 010°40'0 0.0
2015-Aug-03 20:27N 54°45' E 010°40'0 0.0
2015-Aug-03 19:33N 54°45' E 010°40'0 0.0
2015-Aug-03 18:33N 54°45' E 010°40'0 0.0
2015-Aug-03 17:33N 54°45' E 010°40'0 0.0
2015-Aug-03 15:30N 54°45' E 010°40'1 1.1
2015-Aug-03 14:08N 54°46' E 010°39'3 4.8
2015-Aug-03 13:33N 54°44' E 010°35'4 4.1
2015-Aug-03 12:33N 54°41' E 010°30'5 4.7
2015-Aug-03 11:33N 54°38' E 010°25'4 4.5
2015-Aug-03 10:33N 54°34' E 010°20'5 4.7
2015-Aug-03 09:32N 54°30' E 010°16'5 5.0
2015-Aug-03 08:33N 54°26' E 010°13'4 4.2
2015-Aug-03 07:33N 54°22' E 010°09'0 0.0
2015-Aug-03 06:32N 54°22' E 010°09'0 0.0
2015-Aug-03 05:32N 54°22' E 010°09'0 0.0
2015-Aug-03 04:32N 54°22' E 010°09'0 0.0
2015-Aug-03 03:32N 54°22' E 010°09'0 0.0
2015-Aug-03 02:32N 54°22' E 010°09'0 0.0
2015-Aug-03 01:32N 54°22' E 010°09'0 0.0
2015-Aug-03 00:32N 54°22' E 010°09'0 0.0
2015-Aug-02 23:32N 54°22' E 010°09'0 0.0
2015-Aug-02 22:32N 54°22' E 010°09'0 0.0
2015-Aug-02 21:32N 54°22' E 010°09'0 0.0
2015-Aug-02 20:32N 54°22' E 010°09'0 0.0
2015-Aug-02 19:32N 54°22' E 010°09'0 0.0
2015-Aug-02 18:32N 54°22' E 010°09'0 0.0
2015-Aug-02 17:32N 54°22' E 010°09'0 0.0
2015-Aug-02 16:32N 54°22' E 010°09'0 0.0
2015-Aug-02 15:32N 54°22' E 010°09'0 0.0
2015-Aug-02 14:32N 54°22' E 010°09'0 0.0
2015-Aug-02 13:32N 54°22' E 010°09'0 0.1
2015-Aug-02 12:33N 54°22' E 010°09'6 5.5
2015-Aug-02 11:33N 54°27' E 010°14'5 4.7
2015-Aug-02 10:33N 54°30' E 010°07'5 4.6
2015-Aug-02 09:33N 54°29' E 009°60'2 2.0
2015-Aug-02 08:33N 54°29' E 009°56'3 3.1
2015-Aug-02 07:33N 54°28' E 009°51'0 0.0
2015-Aug-02 06:33N 54°28' E 009°51'0 0.0
2015-Aug-02 05:33N 54°28' E 009°51'0 0.0
2015-Aug-02 04:30N 54°28' E 009°51'0 0.0
2015-Aug-02 03:32N 54°28' E 009°51'0 0.0
2015-Aug-02 02:33N 54°28' E 009°51'0 0.0
2015-Aug-02 01:33N 54°28' E 009°51'0 0.0
2015-Aug-02 00:33N 54°28' E 009°51'0 0.0
2015-Aug-01 23:22N 54°28' E 009°51'0 0.0
2015-Aug-01 22:33N 54°28' E 009°51'0 0.0
2015-Aug-01 21:29N 54°28' E 009°51'0 0.0
2015-Aug-01 20:33N 54°28' E 009°51'0 0.0
2015-Aug-01 19:33N 54°28' E 009°51'0 0.0
2015-Aug-01 18:33N 54°28' E 009°51'0 0.0
2015-Aug-01 17:33N 54°28' E 009°51'0 0.1
2015-Aug-01 16:33N 54°28' E 009°51'0 0.3
2015-Aug-01 15:33N 54°28' E 009°51'4 3.5
2015-Aug-01 14:33N 54°29' E 009°57'4 3.6
2015-Aug-01 13:33N 54°31' E 010°02'4 3.6
2015-Aug-01 12:33N 54°33' E 010°08'3 3.4
2015-Aug-01 11:33N 54°35' E 010°12'2 2.2
2015-Aug-01 10:33N 54°37' E 010°15'4 4.1
2015-Aug-01 09:33N 54°39' E 010°21'9 6.4
2015-Aug-01 08:04N 54°44' E 010°35'3 5.1
2015-Aug-01 07:31N 54°45' E 010°39'1 0.1
2015-Jul-31 21:14N 54°45' E 010°40'0 0.0
2015-Jul-31 20:32N 54°45' E 010°40'0 0.0
2015-Jul-31 19:29N 54°45' E 010°40'0 0.0
2015-Jul-31 18:32N 54°45' E 010°40'0 0.0
2015-Jul-31 17:33N 54°45' E 010°40'0 0.0
2015-Jul-31 16:31N 54°45' E 010°40'1 0.8
2015-Jul-31 15:29N 54°45' E 010°39'4 4.2
2015-Jul-31 14:33N 54°48' E 010°34'3 3.2
2015-Jul-31 13:30N 54°50' E 010°30'10 3.3
2015-Jul-31 10:29N 54°40' E 010°26'6 6.7
2015-Jul-31 09:33N 54°34' E 010°22'6 5.7
2015-Jul-31 08:33N 54°29' E 010°18'7 6.7
2015-Jul-31 07:33N 54°24' E 010°12'2 2.3
2015-Jul-31 06:32N 54°22' E 010°09'0 0.0
2015-Jul-31 05:32N 54°22' E 010°09'0 0.0
2015-Jul-31 04:32N 54°22' E 010°09'0 0.0
2015-Jul-31 03:32N 54°22' E 010°09'0 0.0
2015-Jul-31 02:32N 54°22' E 010°09'0 0.0
2015-Jul-31 01:32N 54°22' E 010°09'0 0.0
2015-Jul-31 00:32N 54°22' E 010°09'0 0.0
2015-Jul-30 23:32N 54°22' E 010°09'0 0.0
2015-Jul-30 22:32N 54°22' E 010°09'0 0.0
2015-Jul-30 21:32N 54°22' E 010°09'0 0.0
2015-Jul-30 20:32N 54°22' E 010°09'0 0.0
2015-Jul-30 19:32N 54°22' E 010°09'0 0.0
2015-Jul-30 18:32N 54°22' E 010°09'0 0.0
2015-Jul-30 17:32N 54°22' E 010°09'0 0.0
2015-Jul-30 16:32N 54°22' E 010°09'0 0.0
2015-Jul-30 15:32N 54°22' E 010°09'0 0.0
2015-Jul-30 14:32N 54°22' E 010°09'0 0.0
2015-Jul-30 13:29N 54°22' E 010°09'0 0.0
2015-Jul-30 12:32N 54°22' E 010°09'0 0.0
2015-Jul-30 11:32N 54°22' E 010°09'0 0.0
2015-Jul-30 10:32N 54°22' E 010°09'0 0.0
2015-Jul-30 09:34N 54°22' E 010°09'0 0.0
2015-Jul-30 08:34N 54°22' E 010°09'0 0.0
2015-Jul-30 07:34N 54°22' E 010°09'0 0.0
2015-Jul-30 06:34N 54°22' E 010°09'0 0.0
2015-Jul-30 05:34N 54°22' E 010°09'0 0.0
2015-Jul-30 04:33N 54°22' E 010°09'0 0.0
2015-Jul-30 03:34N 54°22' E 010°09'0 0.0
2015-Jul-30 02:34N 54°22' E 010°09'0 0.0
2015-Jul-30 01:34N 54°22' E 010°09'0 0.0
2015-Jul-30 00:33N 54°22' E 010°09'0 0.0
2015-Jul-29 23:34N 54°22' E 010°09'0 0.0
2015-Jul-29 22:33N 54°22' E 010°09'0 0.0
2015-Jul-29 21:34N 54°22' E 010°09'0 0.0
2015-Jul-29 20:34N 54°22' E 010°09'0 0.0
2015-Jul-29 19:34N 54°22' E 010°09'4 3.8
2015-Jul-29 18:34N 54°25' E 010°13'6 6.3
2015-Jul-29 17:34N 54°31' E 010°14'7 6.8
2015-Jul-29 16:33N 54°38' E 010°12'  
Track history (hours):
 
Tides and Currents Weather Stations Pressure Air Temp Water Temp Dewpoint Dewpoint Depression Visibility Wind Speed Wind Dir Waves Ship Positions

Atlantis (Netherlands)

Ship's website: http://www.tallship-company.com/artemis/gb_atlantis.htm

Last reported at 2015-Aug-04 12:17 UTC. Time now 2015-Aug-04 22:00 UTC.
Position N 54°13' E 011°10'.

Length 40 m; draft 4.4 m.

Type: Sailing vessel. MMSI: 246253000.

Date/timePositionNaut miles runAvg speedWind from/ knotsBaromVisibWave heightAir tempDewpointWater temp
2015-Aug-04 12:17N 54°13' E 011°10'5 4.3
2015-Aug-04 11:04N 54°17' E 011°15'2 3.9
2015-Aug-04 10:33N 54°19' E 011°16'4 3.8
2015-Aug-04 09:33N 54°22' E 011°19'5 5.5
2015-Aug-04 08:33N 54°28' E 011°19'5 5.4
2015-Aug-04 07:33N 54°32' E 011°13'7 6.8
2015-Aug-04 06:33N 54°35' E 011°02'6 5.7
2015-Aug-04 05:33N 54°38' E 010°54'6 5.7
2015-Aug-04 04:33N 54°41' E 010°46'6 5.7
2015-Aug-04 03:33N 54°45' E 010°39'1 0.7
2015-Aug-04 02:30N 54°45' E 010°40'0 0.0
2015-Aug-03 23:18N 54°45' E 010°40'0 0.0
2015-Aug-03 22:30N 54°45' E 010°40'0 0.0
2015-Aug-03 21:33N 54°45' E 010°40'0 0.0
2015-Aug-03 20:27N 54°45' E 010°40'0 0.0
2015-Aug-03 19:33N 54°45' E 010°40'0 0.0
2015-Aug-03 18:33N 54°45' E 010°40'0 0.0
2015-Aug-03 17:33N 54°45' E 010°40'0 0.0
2015-Aug-03 15:30N 54°45' E 010°40'1 1.1
2015-Aug-03 14:08N 54°46' E 010°39'3 4.8
2015-Aug-03 13:33N 54°44' E 010°35'4 4.1
2015-Aug-03 12:33N 54°41' E 010°30'5 4.7
2015-Aug-03 11:33N 54°38' E 010°25'4 4.5
2015-Aug-03 10:33N 54°34' E 010°20'5 4.7
2015-Aug-03 09:32N 54°30' E 010°16'5 5.0
2015-Aug-03 08:33N 54°26' E 010°13'4 4.2
2015-Aug-03 07:33N 54°22' E 010°09'0 0.0
2015-Aug-03 06:32N 54°22' E 010°09'0 0.0
2015-Aug-03 05:32N 54°22' E 010°09'0 0.0
2015-Aug-03 04:32N 54°22' E 010°09'0 0.0
2015-Aug-03 03:32N 54°22' E 010°09'0 0.0
2015-Aug-03 02:32N 54°22' E 010°09'0 0.0
2015-Aug-03 01:32N 54°22' E 010°09'0 0.0
2015-Aug-03 00:32N 54°22' E 010°09'0 0.0
2015-Aug-02 23:32N 54°22' E 010°09'0 0.0
2015-Aug-02 22:32N 54°22' E 010°09'0 0.0
2015-Aug-02 21:32N 54°22' E 010°09'0 0.0
2015-Aug-02 20:32N 54°22' E 010°09'0 0.0
2015-Aug-02 19:32N 54°22' E 010°09'0 0.0
2015-Aug-02 18:32N 54°22' E 010°09'0 0.0
2015-Aug-02 17:32N 54°22' E 010°09'0 0.0
2015-Aug-02 16:32N 54°22' E 010°09'0 0.0
2015-Aug-02 15:32N 54°22' E 010°09'0 0.0
2015-Aug-02 14:32N 54°22' E 010°09'0 0.0
2015-Aug-02 13:32N 54°22' E 010°09'0 0.1
2015-Aug-02 12:33N 54°22' E 010°09'6 5.5
2015-Aug-02 11:33N 54°27' E 010°14'5 4.7
2015-Aug-02 10:33N 54°30' E 010°07'5 4.6
2015-Aug-02 09:33N 54°29' E 009°60'2 2.0
2015-Aug-02 08:33N 54°29' E 009°56'3 3.1
2015-Aug-02 07:33N 54°28' E 009°51'0 0.0
2015-Aug-02 06:33N 54°28' E 009°51'0 0.0
2015-Aug-02 05:33N 54°28' E 009°51'0 0.0
2015-Aug-02 04:30N 54°28' E 009°51'0 0.0
2015-Aug-02 03:32N 54°28' E 009°51'0 0.0
2015-Aug-02 02:33N 54°28' E 009°51'0 0.0
2015-Aug-02 01:33N 54°28' E 009°51'0 0.0
2015-Aug-02 00:33N 54°28' E 009°51'0 0.0
2015-Aug-01 23:22N 54°28' E 009°51'0 0.0
2015-Aug-01 22:33N 54°28' E 009°51'0 0.0
2015-Aug-01 21:29N 54°28' E 009°51'0 0.0
2015-Aug-01 20:33N 54°28' E 009°51'0 0.0
2015-Aug-01 19:33N 54°28' E 009°51'0 0.0
2015-Aug-01 18:33N 54°28' E 009°51'0 0.0
2015-Aug-01 17:33N 54°28' E 009°51'0 0.1
2015-Aug-01 16:33N 54°28' E 009°51'0 0.3
2015-Aug-01 15:33N 54°28' E 009°51'4 3.5
2015-Aug-01 14:33N 54°29' E 009°57'4 3.6
2015-Aug-01 13:33N 54°31' E 010°02'4 3.6
2015-Aug-01 12:33N 54°33' E 010°08'3 3.4
2015-Aug-01 11:33N 54°35' E 010°12'2 2.2
2015-Aug-01 10:33N 54°37' E 010°15'4 4.1
2015-Aug-01 09:33N 54°39' E 010°21'9 6.4
2015-Aug-01 08:04N 54°44' E 010°35'3 5.1
2015-Aug-01 07:31N 54°45' E 010°39'1 0.1
2015-Jul-31 21:14N 54°45' E 010°40'0 0.0
2015-Jul-31 20:32N 54°45' E 010°40'0 0.0
2015-Jul-31 19:29N 54°45' E 010°40'0 0.0
2015-Jul-31 18:32N 54°45' E 010°40'0 0.0
2015-Jul-31 17:33N 54°45' E 010°40'0 0.0
2015-Jul-31 16:31N 54°45' E 010°40'1 0.8
2015-Jul-31 15:29N 54°45' E 010°39'4 4.2
2015-Jul-31 14:33N 54°48' E 010°34'3 3.2
2015-Jul-31 13:30N 54°50' E 010°30'10 3.3
2015-Jul-31 10:29N 54°40' E 010°26'6 6.7
2015-Jul-31 09:33N 54°34' E 010°22'6 5.7
2015-Jul-31 08:33N 54°29' E 010°18'7 6.7
2015-Jul-31 07:33N 54°24' E 010°12'2 2.3
2015-Jul-31 06:32N 54°22' E 010°09'0 0.0
2015-Jul-31 05:32N 54°22' E 010°09'0 0.0
2015-Jul-31 04:32N 54°22' E 010°09'0 0.0
2015-Jul-31 03:32N 54°22' E 010°09'0 0.0
2015-Jul-31 02:32N 54°22' E 010°09'0 0.0
2015-Jul-31 01:32N 54°22' E 010°09'0 0.0
2015-Jul-31 00:32N 54°22' E 010°09'0 0.0
2015-Jul-30 23:32N 54°22' E 010°09'0 0.0
2015-Jul-30 22:32N 54°22' E 010°09'0 0.0
2015-Jul-30 21:32N 54°22' E 010°09'0 0.0
2015-Jul-30 20:32N 54°22' E 010°09'0 0.0
2015-Jul-30 19:32N 54°22' E 010°09'0 0.0
2015-Jul-30 18:32N 54°22' E 010°09'0 0.0
2015-Jul-30 17:32N 54°22' E 010°09'0 0.0
2015-Jul-30 16:32N 54°22' E 010°09'0 0.0
2015-Jul-30 15:32N 54°22' E 010°09'0 0.0
2015-Jul-30 14:32N 54°22' E 010°09'0 0.0
2015-Jul-30 13:29N 54°22' E 010°09'0 0.0
2015-Jul-30 12:32N 54°22' E 010°09'0 0.0
2015-Jul-30 11:32N 54°22' E 010°09'0 0.0
2015-Jul-30 10:32N 54°22' E 010°09'0 0.0
2015-Jul-30 09:34N 54°22' E 010°09'0 0.0
2015-Jul-30 08:34N 54°22' E 010°09'0 0.0
2015-Jul-30 07:34N 54°22' E 010°09'0 0.0
2015-Jul-30 06:34N 54°22' E 010°09'0 0.0
2015-Jul-30 05:34N 54°22' E 010°09'0 0.0
2015-Jul-30 04:33N 54°22' E 010°09'0 0.0
2015-Jul-30 03:34N 54°22' E 010°09'0 0.0
2015-Jul-30 02:34N 54°22' E 010°09'0 0.0
2015-Jul-30 01:34N 54°22' E 010°09'0 0.0
2015-Jul-30 00:33N 54°22' E 010°09'0 0.0
2015-Jul-29 23:34N 54°22' E 010°09'0 0.0
2015-Jul-29 22:33N 54°22' E 010°09'0 0.0
2015-Jul-29 21:34N 54°22' E 010°09'0 0.0
2015-Jul-29 20:34N 54°22' E 010°09'0 0.0
2015-Jul-29 19:34N 54°22' E 010°09'4 3.8
2015-Jul-29 18:34N 54°25' E 010°13'6 6.3
2015-Jul-29 17:34N 54°31' E 010°14'7 6.8
2015-Jul-29 16:33N 54°38' E 010°12'  

Dump ship's entire track history